Vremea mâine în Ineu - Romania

Vrei sa afli care e starea vremii acum in Arad - Romania? Dorim sa iti furnizam starea vremii pentru Arad - Romania. Starea vremii Arad - Romania pentru astazi.

Vremea mâine în Ineu

Temperatura minimă:
10.5 °C

Temperatura maximă:
21.6 °C

Mâine va fi: Patchy rain nearby
Precipitații: 89 %
Umiditate: 77%
Viteza maximă vânt mâine:
9.7 km/h

Evoluția vremii in Ineu pe ore mâine

Ora: 08:00
Temperatura: °C
Sansa de precipitatii: %
Ora Descriere Temp Se simte Precipitatii Umiditate Vant
00:00Ceata11°10.8°0%97%SSE 5.4 KM/H
01:00Ceata10.5°10.3°68%97%SSE 5.4 KM/H
02:00Ceata11.6°11.8°0%96%SSE 4.3 KM/H
03:00Ceata12°12.4°0%95%SE 3.6 KM/H
04:00Ceata11.2°11.2°0%96%SSE 2.5 KM/H
05:00Ceata11.8°11.8°0%95%S 1.8 KM/H
06:00Ceata11.8°11.8°0%95%SE 1.8 KM/H
07:00Ceata12.1°12.1°0%94%SE 5 KM/H
08:00Senin13.5°14.1°0%92%SE 4 KM/H
09:0015.1°15.1°0%86%SSE 1.8 KM/H
10:0016.5°16.6°0%78%S 2.2 KM/H
11:00Innorat18.4°18.4°0%68%SW 1.1 KM/H
12:00Patchy rain nearby20.8°20.8°63%58%NW 2.5 KM/H
13:00Patchy rain nearby20.9°20.9°100%56%NW 6.1 KM/H
14:00Ploi usoare21°21°100%57%NW 7.6 KM/H
15:00Burniță ușoară21.2°21.2°100%56%NW 7.6 KM/H
16:00Patchy rain nearby21.6°21.6°67%53%NW 8.3 KM/H
17:00Patchy rain nearby21.2°21.2°100%53%NW 9.7 KM/H
18:00Patchy rain nearby20.2°20.2°100%61%NNW 8.3 KM/H
19:00Patchy rain nearby18°18°75%70%NNW 6.5 KM/H
20:00Ploi usoare16.3°16.3°100%75%N 5.8 KM/H
21:00Innorat15°15.8°0%76%N 3.6 KM/H
22:00Innorat14.5°14.5°0%77%N 2.5 KM/H
23:00Innorat14.1°14.1°0%78%N 1.1 KM/H




tutorials